sensor_id;sensor_type;location;lat;lon;timestamp;temperature;humidity
7290;DHT22;63176;52.678;13.250;2023-07-20T00:02:21;16.90;98.90
7290;DHT22;63176;52.678;13.250;2023-07-20T00:04:46;16.80;97.90
7290;DHT22;63176;52.678;13.250;2023-07-20T00:07:12;16.80;98.00
7290;DHT22;63176;52.678;13.250;2023-07-20T00:09:37;16.80;98.70
7290;DHT22;63176;52.678;13.250;2023-07-20T00:12:03;16.70;97.80
7290;DHT22;63176;52.678;13.250;2023-07-20T00:14:29;16.70;98.20
7290;DHT22;63176;52.678;13.250;2023-07-20T00:16:55;16.60;97.60
7290;DHT22;63176;52.678;13.250;2023-07-20T00:19:25;16.60;97.40
7290;DHT22;63176;52.678;13.250;2023-07-20T00:21:52;16.60;97.50
7290;DHT22;63176;52.678;13.250;2023-07-20T00:24:18;16.60;97.80
7290;DHT22;63176;52.678;13.250;2023-07-20T00:26:44;16.60;98.50
7290;DHT22;63176;52.678;13.250;2023-07-20T00:29:10;16.50;98.30
7290;DHT22;63176;52.678;13.250;2023-07-20T00:31:36;16.60;98.90
7290;DHT22;63176;52.678;13.250;2023-07-20T00:34:03;16.70;99.90
7290;DHT22;63176;52.678;13.250;2023-07-20T00:36:29;16.70;99.70
7290;DHT22;63176;52.678;13.250;2023-07-20T00:38:54;16.70;99.90
7290;DHT22;63176;52.678;13.250;2023-07-20T00:41:20;16.70;99.40
7290;DHT22;63176;52.678;13.250;2023-07-20T00:43:45;16.70;99.50
7290;DHT22;63176;52.678;13.250;2023-07-20T00:46:11;16.70;99.90
7290;DHT22;63176;52.678;13.250;2023-07-20T00:48:37;16.70;99.30
7290;DHT22;63176;52.678;13.250;2023-07-20T00:51:04;16.60;99.60
7290;DHT22;63176;52.678;13.250;2023-07-20T00:53:29;16.60;99.70
7290;DHT22;63176;52.678;13.250;2023-07-20T00:55:55;16.60;99.90
7290;DHT22;63176;52.678;13.250;2023-07-20T00:58:22;16.60;99.90
7290;DHT22;63176;52.678;13.250;2023-07-20T01:00:48;16.60;99.90
7290;DHT22;63176;52.678;13.250;2023-07-20T01:03:14;16.60;99.90
7290;DHT22;63176;52.678;13.250;2023-07-20T01:09:05;16.70;99.90
7290;DHT22;63176;52.678;13.250;2023-07-20T01:14:12;16.70;99.90
7290;DHT22;63176;52.678;13.250;2023-07-20T01:16:37;16.70;99.90
7290;DHT22;63176;52.678;13.250;2023-07-20T01:19:03;16.70;99.90
7290;DHT22;63176;52.678;13.250;2023-07-20T01:22:02;16.60;99.90
7290;DHT22;63176;52.678;13.250;2023-07-20T01:27:41;16.70;99.90
7290;DHT22;63176;52.678;13.250;2023-07-20T01:30:23;16.70;99.90
7290;DHT22;63176;52.678;13.250;2023-07-20T01:32:54;16.70;99.90
7290;DHT22;63176;52.678;13.250;2023-07-20T01:35:23;16.80;99.90
7290;DHT22;63176;52.678;13.250;2023-07-20T01:37:52;16.80;99.90
7290;DHT22;63176;52.678;13.250;2023-07-20T01:40:20;16.90;99.90
7290;DHT22;63176;52.678;13.250;2023-07-20T01:42:47;16.90;99.90
7290;DHT22;63176;52.678;13.250;2023-07-20T01:45:13;17.00;99.90
7290;DHT22;63176;52.678;13.250;2023-07-20T01:47:38;17.10;99.90
7290;DHT22;63176;52.678;13.250;2023-07-20T01:50:04;17.10;99.90
7290;DHT22;63176;52.678;13.250;2023-07-20T01:52:30;17.10;99.90
7290;DHT22;63176;52.678;13.250;2023-07-20T01:54:56;17.10;99.90
7290;DHT22;63176;52.678;13.250;2023-07-20T01:57:21;17.00;99.90
7290;DHT22;63176;52.678;13.250;2023-07-20T01:59:47;17.10;99.90
7290;DHT22;63176;52.678;13.250;2023-07-20T02:02:13;17.10;99.90
7290;DHT22;63176;52.678;13.250;2023-07-20T02:04:38;17.10;99.90
7290;DHT22;63176;52.678;13.250;2023-07-20T02:07:04;17.10;99.90
7290;DHT22;63176;52.678;13.250;2023-07-20T02:09:29;17.10;99.90
7290;DHT22;63176;52.678;13.250;2023-07-20T02:11:56;17.00;99.90
7290;DHT22;63176;52.678;13.250;2023-07-20T02:14:21;17.00;99.90
7290;DHT22;63176;52.678;13.250;2023-07-20T02:16:48;17.00;99.90
7290;DHT22;63176;52.678;13.250;2023-07-20T02:19:18;17.00;99.90
7290;DHT22;63176;52.678;13.250;2023-07-20T02:21:44;17.00;99.90
7290;DHT22;63176;52.678;13.250;2023-07-20T02:24:09;17.10;99.90
7290;DHT22;63176;52.678;13.250;2023-07-20T02:26:35;17.10;99.90
7290;DHT22;63176;52.678;13.250;2023-07-20T02:29:00;17.10;99.90
7290;DHT22;63176;52.678;13.250;2023-07-20T02:31:29;17.10;99.90
7290;DHT22;63176;52.678;13.250;2023-07-20T02:33:54;17.10;99.90
7290;DHT22;63176;52.678;13.250;2023-07-20T02:36:20;17.10;99.90
7290;DHT22;63176;52.678;13.250;2023-07-20T02:38:46;17.10;99.90
7290;DHT22;63176;52.678;13.250;2023-07-20T02:41:12;17.10;99.90
7290;DHT22;63176;52.678;13.250;2023-07-20T02:43:38;17.10;99.90
7290;DHT22;63176;52.678;13.250;2023-07-20T02:46:04;17.10;99.90
7290;DHT22;63176;52.678;13.250;2023-07-20T02:48:29;17.10;99.90
7290;DHT22;63176;52.678;13.250;2023-07-20T02:50:55;17.10;99.90
7290;DHT22;63176;52.678;13.250;2023-07-20T02:53:20;17.10;99.90
7290;DHT22;63176;52.678;13.250;2023-07-20T02:55:46;17.10;99.90
7290;DHT22;63176;52.678;13.250;2023-07-20T02:58:12;17.10;99.90
7290;DHT22;63176;52.678;13.250;2023-07-20T03:00:38;17.10;99.90
7290;DHT22;63176;52.678;13.250;2023-07-20T03:03:03;17.10;99.90
7290;DHT22;63176;52.678;13.250;2023-07-20T03:05:29;17.10;99.90
7290;DHT22;63176;52.678;13.250;2023-07-20T03:07:55;17.00;99.90
7290;DHT22;63176;52.678;13.250;2023-07-20T03:10:21;17.00;99.90
7290;DHT22;63176;52.678;13.250;2023-07-20T03:12:47;17.00;99.90
7290;DHT22;63176;52.678;13.250;2023-07-20T03:15:12;17.00;99.90
7290;DHT22;63176;52.678;13.250;2023-07-20T03:17:45;17.00;99.90
7290;DHT22;63176;52.678;13.250;2023-07-20T03:20:11;17.00;99.90
7290;DHT22;63176;52.678;13.250;2023-07-20T03:22:38;17.00;99.90
7290;DHT22;63176;52.678;13.250;2023-07-20T03:25:04;17.00;99.90
7290;DHT22;63176;52.678;13.250;2023-07-20T03:27:30;17.00;99.90
7290;DHT22;63176;52.678;13.250;2023-07-20T03:29:55;17.00;99.90
7290;DHT22;63176;52.678;13.250;2023-07-20T03:32:21;17.00;99.90
7290;DHT22;63176;52.678;13.250;2023-07-20T03:34:47;17.00;99.90
7290;DHT22;63176;52.678;13.250;2023-07-20T03:37:13;17.00;99.90
7290;DHT22;63176;52.678;13.250;2023-07-20T03:39:38;17.00;99.90
7290;DHT22;63176;52.678;13.250;2023-07-20T03:42:04;17.00;99.90
7290;DHT22;63176;52.678;13.250;2023-07-20T03:44:30;17.00;99.90
7290;DHT22;63176;52.678;13.250;2023-07-20T03:46:56;17.00;99.90
7290;DHT22;63176;52.678;13.250;2023-07-20T03:49:21;17.00;99.90
7290;DHT22;63176;52.678;13.250;2023-07-20T03:51:47;17.00;99.90
7290;DHT22;63176;52.678;13.250;2023-07-20T03:54:13;17.10;99.90
7290;DHT22;63176;52.678;13.250;2023-07-20T03:56:38;17.10;99.90
7290;DHT22;63176;52.678;13.250;2023-07-20T03:59:04;17.10;99.90
7290;DHT22;63176;52.678;13.250;2023-07-20T04:01:30;17.10;99.90
7290;DHT22;63176;52.678;13.250;2023-07-20T04:04:06;17.10;99.90
7290;DHT22;63176;52.678;13.250;2023-07-20T04:06:32;17.20;99.90
7290;DHT22;63176;52.678;13.250;2023-07-20T04:08:58;17.20;99.90
7290;DHT22;63176;52.678;13.250;2023-07-20T04:11:23;17.10;99.90
7290;DHT22;63176;52.678;13.250;2023-07-20T04:13:49;17.20;99.90
7290;DHT22;63176;52.678;13.250;2023-07-20T04:16:15;17.20;99.90
7290;DHT22;63176;52.678;13.250;2023-07-20T04:18:40;17.20;99.90
7290;DHT22;63176;52.678;13.250;2023-07-20T04:21:08;17.20;99.90
7290;DHT22;63176;52.678;13.250;2023-07-20T04:23:45;17.20;99.90
7290;DHT22;63176;52.678;13.250;2023-07-20T04:26:11;17.20;99.90
7290;DHT22;63176;52.678;13.250;2023-07-20T04:28:38;17.30;99.90
7290;DHT22;63176;52.678;13.250;2023-07-20T04:31:13;17.30;99.90
7290;DHT22;63176;52.678;13.250;2023-07-20T04:33:39;17.30;99.90
7290;DHT22;63176;52.678;13.250;2023-07-20T04:36:05;17.30;99.90
7290;DHT22;63176;52.678;13.250;2023-07-20T04:38:31;17.30;99.90
7290;DHT22;63176;52.678;13.250;2023-07-20T04:40:56;17.30;99.90
7290;DHT22;63176;52.678;13.250;2023-07-20T04:43:22;17.30;99.90
7290;DHT22;63176;52.678;13.250;2023-07-20T04:45:48;17.30;99.90
7290;DHT22;63176;52.678;13.250;2023-07-20T04:48:15;17.30;99.90
7290;DHT22;63176;52.678;13.250;2023-07-20T04:50:45;17.40;99.90
7290;DHT22;63176;52.678;13.250;2023-07-20T04:53:11;17.40;99.90
7290;DHT22;63176;52.678;13.250;2023-07-20T04:55:46;17.40;99.90
7290;DHT22;63176;52.678;13.250;2023-07-20T04:58:12;17.40;99.90
7290;DHT22;63176;52.678;13.250;2023-07-20T05:00:38;17.40;99.90
7290;DHT22;63176;52.678;13.250;2023-07-20T05:03:03;17.40;99.90
7290;DHT22;63176;52.678;13.250;2023-07-20T05:05:30;17.40;99.90
7290;DHT22;63176;52.678;13.250;2023-07-20T05:07:57;17.40;99.90
7290;DHT22;63176;52.678;13.250;2023-07-20T05:10:23;17.50;99.90
7290;DHT22;63176;52.678;13.250;2023-07-20T05:12:49;17.40;99.90
7290;DHT22;63176;52.678;13.250;2023-07-20T05:15:14;17.50;99.90
7290;DHT22;63176;52.678;13.250;2023-07-20T05:17:40;17.50;99.90
7290;DHT22;63176;52.678;13.250;2023-07-20T05:20:06;17.50;99.90
7290;DHT22;63176;52.678;13.250;2023-07-20T05:22:32;17.50;99.90
7290;DHT22;63176;52.678;13.250;2023-07-20T05:24:59;17.50;99.90
7290;DHT22;63176;52.678;13.250;2023-07-20T05:27:24;17.50;99.90
7290;DHT22;63176;52.678;13.250;2023-07-20T05:29:50;17.50;99.90
7290;DHT22;63176;52.678;13.250;2023-07-20T05:32:16;17.50;99.90
7290;DHT22;63176;52.678;13.250;2023-07-20T05:34:41;17.50;99.90
7290;DHT22;63176;52.678;13.250;2023-07-20T05:37:07;17.50;99.90
7290;DHT22;63176;52.678;13.250;2023-07-20T05:39:33;17.50;99.90
7290;DHT22;63176;52.678;13.250;2023-07-20T05:41:58;17.50;99.90
7290;DHT22;63176;52.678;13.250;2023-07-20T05:44:24;17.40;99.90
7290;DHT22;63176;52.678;13.250;2023-07-20T05:46:49;17.30;99.90
7290;DHT22;63176;52.678;13.250;2023-07-20T05:49:15;17.30;99.90
7290;DHT22;63176;52.678;13.250;2023-07-20T05:51:41;17.40;99.90
7290;DHT22;63176;52.678;13.250;2023-07-20T05:54:06;17.50;99.90
7290;DHT22;63176;52.678;13.250;2023-07-20T05:56:32;17.60;99.90
7290;DHT22;63176;52.678;13.250;2023-07-20T05:58:57;17.70;99.90
7290;DHT22;63176;52.678;13.250;2023-07-20T06:01:23;17.70;99.90
7290;DHT22;63176;52.678;13.250;2023-07-20T06:03:52;17.80;99.90
7290;DHT22;63176;52.678;13.250;2023-07-20T06:06:18;17.80;99.90
7290;DHT22;63176;52.678;13.250;2023-07-20T06:08:43;17.90;99.90
7290;DHT22;63176;52.678;13.250;2023-07-20T06:11:09;18.00;99.90
7290;DHT22;63176;52.678;13.250;2023-07-20T06:13:35;18.10;99.90
7290;DHT22;63176;52.678;13.250;2023-07-20T06:16:01;18.10;99.90
7290;DHT22;63176;52.678;13.250;2023-07-20T06:18:27;18.10;99.90
7290;DHT22;63176;52.678;13.250;2023-07-20T06:20:53;18.10;99.90
7290;DHT22;63176;52.678;13.250;2023-07-20T06:23:19;18.20;99.90
7290;DHT22;63176;52.678;13.250;2023-07-20T06:25:45;18.20;99.90
7290;DHT22;63176;52.678;13.250;2023-07-20T06:28:11;18.20;99.90
7290;DHT22;63176;52.678;13.250;2023-07-20T06:30:37;18.20;99.90
7290;DHT22;63176;52.678;13.250;2023-07-20T06:33:02;18.30;99.90
7290;DHT22;63176;52.678;13.250;2023-07-20T06:35:28;18.30;99.90
7290;DHT22;63176;52.678;13.250;2023-07-20T06:37:53;18.40;99.90
7290;DHT22;63176;52.678;13.250;2023-07-20T06:40:20;18.40;99.90
7290;DHT22;63176;52.678;13.250;2023-07-20T06:42:46;18.30;99.90
7290;DHT22;63176;52.678;13.250;2023-07-20T06:45:12;18.30;99.90
7290;DHT22;63176;52.678;13.250;2023-07-20T06:47:38;18.20;99.90
7290;DHT22;63176;52.678;13.250;2023-07-20T06:50:09;18.20;99.90
7290;DHT22;63176;52.678;13.250;2023-07-20T06:52:35;18.20;99.90
7290;DHT22;63176;52.678;13.250;2023-07-20T06:55:01;18.30;99.90
7290;DHT22;63176;52.678;13.250;2023-07-20T06:57:26;18.30;99.90
7290;DHT22;63176;52.678;13.250;2023-07-20T06:59:52;18.30;99.90
7290;DHT22;63176;52.678;13.250;2023-07-20T07:02:18;18.40;99.90
7290;DHT22;63176;52.678;13.250;2023-07-20T07:04:44;18.40;99.90
7290;DHT22;63176;52.678;13.250;2023-07-20T07:07:10;18.50;99.90
7290;DHT22;63176;52.678;13.250;2023-07-20T07:09:36;18.60;99.90
7290;DHT22;63176;52.678;13.250;2023-07-20T07:12:02;18.70;99.90
7290;DHT22;63176;52.678;13.250;2023-07-20T07:14:29;18.70;99.90
7290;DHT22;63176;52.678;13.250;2023-07-20T07:17:00;18.80;99.90
7290;DHT22;63176;52.678;13.250;2023-07-20T07:19:28;18.90;99.90
7290;DHT22;63176;52.678;13.250;2023-07-20T07:21:53;19.00;99.90
7290;DHT22;63176;52.678;13.250;2023-07-20T07:24:19;19.00;99.90
7290;DHT22;63176;52.678;13.250;2023-07-20T07:26:45;19.00;99.90
7290;DHT22;63176;52.678;13.250;2023-07-20T07:29:10;19.00;99.90
7290;DHT22;63176;52.678;13.250;2023-07-20T07:31:36;19.10;99.90
7290;DHT22;63176;52.678;13.250;2023-07-20T07:34:02;19.20;99.90
7290;DHT22;63176;52.678;13.250;2023-07-20T07:36:28;19.30;99.90
7290;DHT22;63176;52.678;13.250;2023-07-20T07:38:55;19.30;99.90
7290;DHT22;63176;52.678;13.250;2023-07-20T07:41:20;19.30;99.90
7290;DHT22;63176;52.678;13.250;2023-07-20T07:43:46;19.30;99.90
7290;DHT22;63176;52.678;13.250;2023-07-20T07:46:12;19.30;99.90
7290;DHT22;63176;52.678;13.250;2023-07-20T07:48:37;19.40;99.80
7290;DHT22;63176;52.678;13.250;2023-07-20T07:51:03;19.40;99.90
7290;DHT22;63176;52.678;13.250;2023-07-20T07:53:29;19.50;99.90
7290;DHT22;63176;52.678;13.250;2023-07-20T07:55:55;19.60;99.90
7290;DHT22;63176;52.678;13.250;2023-07-20T07:58:21;19.50;99.90
7290;DHT22;63176;52.678;13.250;2023-07-20T08:00:47;19.60;99.90
7290;DHT22;63176;52.678;13.250;2023-07-20T08:03:13;19.70;99.90
7290;DHT22;63176;52.678;13.250;2023-07-20T08:05:39;19.80;99.90
7290;DHT22;63176;52.678;13.250;2023-07-20T08:08:06;19.90;99.90
7290;DHT22;63176;52.678;13.250;2023-07-20T08:10:32;20.00;99.60
7290;DHT22;63176;52.678;13.250;2023-07-20T08:13:02;20.00;99.80
7290;DHT22;63176;52.678;13.250;2023-07-20T08:15:28;20.20;99.90
7290;DHT22;63176;52.678;13.250;2023-07-20T08:17:54;20.20;98.70
7290;DHT22;63176;52.678;13.250;2023-07-20T08:20:22;20.30;99.90
7290;DHT22;63176;52.678;13.250;2023-07-20T08:22:55;20.30;98.50
7290;DHT22;63176;52.678;13.250;2023-07-20T08:25:23;20.20;98.40
7290;DHT22;63176;52.678;13.250;2023-07-20T08:27:49;20.20;98.70
7290;DHT22;63176;52.678;13.250;2023-07-20T08:30:20;20.20;98.60
7290;DHT22;63176;52.678;13.250;2023-07-20T08:32:47;20.20;99.00
7290;DHT22;63176;52.678;13.250;2023-07-20T08:35:13;20.50;98.90
7290;DHT22;63176;52.678;13.250;2023-07-20T08:37:40;20.20;98.60
7290;DHT22;63176;52.678;13.250;2023-07-20T08:40:14;20.10;98.20
7290;DHT22;63176;52.678;13.250;2023-07-20T08:42:52;20.10;98.70
7290;DHT22;63176;52.678;13.250;2023-07-20T08:45:22;20.10;98.70
7290;DHT22;63176;52.678;13.250;2023-07-20T08:47:50;20.20;98.90
7290;DHT22;63176;52.678;13.250;2023-07-20T08:50:19;20.30;99.90
7290;DHT22;63176;52.678;13.250;2023-07-20T08:52:46;20.40;98.00
7290;DHT22;63176;52.678;13.250;2023-07-20T08:55:23;20.40;97.40
7290;DHT22;63176;52.678;13.250;2023-07-20T08:57:57;20.30;97.20
7290;DHT22;63176;52.678;13.250;2023-07-20T09:00:25;20.30;97.10
7290;DHT22;63176;52.678;13.250;2023-07-20T09:02:53;20.20;99.90
7290;DHT22;63176;52.678;13.250;2023-07-20T09:05:33;20.10;98.20
7290;DHT22;63176;52.678;13.250;2023-07-20T09:08:03;20.00;97.60
7290;DHT22;63176;52.678;13.250;2023-07-20T09:10:39;19.80;98.50
7290;DHT22;63176;52.678;13.250;2023-07-20T09:13:16;19.70;98.40
7290;DHT22;63176;52.678;13.250;2023-07-20T09:16:01;19.60;98.30
7290;DHT22;63176;52.678;13.250;2023-07-20T09:21:41;19.50;97.90
7290;DHT22;63176;52.678;13.250;2023-07-20T09:24:29;19.50;98.20
7290;DHT22;63176;52.678;13.250;2023-07-20T09:27:06;19.60;99.90
7290;DHT22;63176;52.678;13.250;2023-07-20T09:30:14;20.10;99.90
7290;DHT22;63176;52.678;13.250;2023-07-20T09:32:47;19.90;99.90
7290;DHT22;63176;52.678;13.250;2023-07-20T09:38:11;20.30;99.60
7290;DHT22;63176;52.678;13.250;2023-07-20T09:40:56;20.20;99.90
7290;DHT22;63176;52.678;13.250;2023-07-20T09:43:33;20.20;99.10
7290;DHT22;63176;52.678;13.250;2023-07-20T09:46:14;20.10;99.20
7290;DHT22;63176;52.678;13.250;2023-07-20T09:48:58;20.00;98.20
7290;DHT22;63176;52.678;13.250;2023-07-20T09:51:24;19.90;97.00
7290;DHT22;63176;52.678;13.250;2023-07-20T09:53:52;19.80;96.10
7290;DHT22;63176;52.678;13.250;2023-07-20T09:56:21;19.90;96.30
7290;DHT22;63176;52.678;13.250;2023-07-20T09:58:48;19.90;97.70
7290;DHT22;63176;52.678;13.250;2023-07-20T10:01:18;20.00;97.90
7290;DHT22;63176;52.678;13.250;2023-07-20T10:03:46;20.20;98.10
7290;DHT22;63176;52.678;13.250;2023-07-20T10:06:15;20.20;96.40
7290;DHT22;63176;52.678;13.250;2023-07-20T10:08:46;20.10;96.00
7290;DHT22;63176;52.678;13.250;2023-07-20T10:11:15;20.10;96.20
7290;DHT22;63176;52.678;13.250;2023-07-20T10:13:41;20.10;97.20
7290;DHT22;63176;52.678;13.250;2023-07-20T10:16:15;20.10;97.00
7290;DHT22;63176;52.678;13.250;2023-07-20T10:18:50;20.20;97.00
7290;DHT22;63176;52.678;13.250;2023-07-20T10:21:17;20.30;97.40
7290;DHT22;63176;52.678;13.250;2023-07-20T10:23:48;20.40;98.40
7290;DHT22;63176;52.678;13.250;2023-07-20T10:26:14;20.50;98.20
7290;DHT22;63176;52.678;13.250;2023-07-20T10:28:41;20.60;97.00
7290;DHT22;63176;52.678;13.250;2023-07-20T10:31:12;20.60;96.90
7290;DHT22;63176;52.678;13.250;2023-07-20T10:33:39;20.50;96.90
7290;DHT22;63176;52.678;13.250;2023-07-20T10:36:05;20.40;96.10
7290;DHT22;63176;52.678;13.250;2023-07-20T10:38:41;20.20;95.70
7290;DHT22;63176;52.678;13.250;2023-07-20T10:41:21;20.10;95.80
7290;DHT22;63176;52.678;13.250;2023-07-20T10:43:50;20.00;95.20
7290;DHT22;63176;52.678;13.250;2023-07-20T10:46:34;19.90;96.50
7290;DHT22;63176;52.678;13.250;2023-07-20T10:49:02;19.80;96.70
7290;DHT22;63176;52.678;13.250;2023-07-20T10:51:28;19.70;97.30
7290;DHT22;63176;52.678;13.250;2023-07-20T10:53:58;19.70;98.20
7290;DHT22;63176;52.678;13.250;2023-07-20T10:56:27;19.80;99.80
7290;DHT22;63176;52.678;13.250;2023-07-20T10:58:59;20.00;99.70
7290;DHT22;63176;52.678;13.250;2023-07-20T11:01:30;20.10;98.00
7290;DHT22;63176;52.678;13.250;2023-07-20T11:03:59;20.30;98.00
7290;DHT22;63176;52.678;13.250;2023-07-20T11:06:29;20.50;96.10
7290;DHT22;63176;52.678;13.250;2023-07-20T11:09:09;20.90;99.00
7290;DHT22;63176;52.678;13.250;2023-07-20T11:11:40;21.30;97.30
7290;DHT22;63176;52.678;13.250;2023-07-20T11:14:08;21.50;97.10
7290;DHT22;63176;52.678;13.250;2023-07-20T11:16:34;21.50;97.30
7290;DHT22;63176;52.678;13.250;2023-07-20T11:19:00;21.50;97.30
7290;DHT22;63176;52.678;13.250;2023-07-20T11:21:26;21.40;97.30
7290;DHT22;63176;52.678;13.250;2023-07-20T11:23:52;21.20;95.50
7290;DHT22;63176;52.678;13.250;2023-07-20T11:26:18;21.10;94.70
7290;DHT22;63176;52.678;13.250;2023-07-20T11:28:51;21.00;94.50
7290;DHT22;63176;52.678;13.250;2023-07-20T11:31:18;20.90;93.00
7290;DHT22;63176;52.678;13.250;2023-07-20T11:33:44;20.90;93.00
7290;DHT22;63176;52.678;13.250;2023-07-20T11:36:10;20.80;92.70
7290;DHT22;63176;52.678;13.250;2023-07-20T11:38:35;20.80;91.60
7290;DHT22;63176;52.678;13.250;2023-07-20T11:41:03;21.00;92.60
7290;DHT22;63176;52.678;13.250;2023-07-20T11:43:29;21.10;93.50
7290;DHT22;63176;52.678;13.250;2023-07-20T11:45:56;21.10;93.20
7290;DHT22;63176;52.678;13.250;2023-07-20T11:48:21;21.10;91.80
7290;DHT22;63176;52.678;13.250;2023-07-20T11:50:47;21.00;92.90
7290;DHT22;63176;52.678;13.250;2023-07-20T11:53:14;21.00;91.40
7290;DHT22;63176;52.678;13.250;2023-07-20T11:55:40;21.10;92.20
7290;DHT22;63176;52.678;13.250;2023-07-20T11:58:08;21.30;91.10
7290;DHT22;63176;52.678;13.250;2023-07-20T12:00:34;21.40;90.40
7290;DHT22;63176;52.678;13.250;2023-07-20T12:03:00;21.60;91.90
7290;DHT22;63176;52.678;13.250;2023-07-20T12:05:26;21.80;91.90
7290;DHT22;63176;52.678;13.250;2023-07-20T12:07:53;22.00;92.40
7290;DHT22;63176;52.678;13.250;2023-07-20T12:10:27;22.00;90.00
7290;DHT22;63176;52.678;13.250;2023-07-20T12:12:54;22.00;90.30
7290;DHT22;63176;52.678;13.250;2023-07-20T12:15:21;22.20;91.20
7290;DHT22;63176;52.678;13.250;2023-07-20T12:17:50;22.60;93.60
7290;DHT22;63176;52.678;13.250;2023-07-20T12:20:27;23.00;93.70
7290;DHT22;63176;52.678;13.250;2023-07-20T12:22:56;23.20;92.20
7290;DHT22;63176;52.678;13.250;2023-07-20T12:25:22;23.50;92.20
7290;DHT22;63176;52.678;13.250;2023-07-20T12:27:48;23.70;91.80
7290;DHT22;63176;52.678;13.250;2023-07-20T12:30:14;24.00;93.20
7290;DHT22;63176;52.678;13.250;2023-07-20T12:32:40;24.30;91.20
7290;DHT22;63176;52.678;13.250;2023-07-20T12:35:06;24.60;90.50
7290;DHT22;63176;52.678;13.250;2023-07-20T12:37:32;24.80;90.60
7290;DHT22;63176;52.678;13.250;2023-07-20T12:39:58;25.10;91.90
7290;DHT22;63176;52.678;13.250;2023-07-20T12:42:23;25.10;88.50
7290;DHT22;63176;52.678;13.250;2023-07-20T12:44:49;25.00;88.30
7290;DHT22;63176;52.678;13.250;2023-07-20T12:47:17;25.10;87.80
7290;DHT22;63176;52.678;13.250;2023-07-20T12:49:42;25.00;86.70
7290;DHT22;63176;52.678;13.250;2023-07-20T12:52:10;25.10;85.60
7290;DHT22;63176;52.678;13.250;2023-07-20T12:54:36;25.30;87.30
7290;DHT22;63176;52.678;13.250;2023-07-20T12:57:02;25.50;87.60
7290;DHT22;63176;52.678;13.250;2023-07-20T12:59:29;25.50;86.10
7290;DHT22;63176;52.678;13.250;2023-07-20T13:01:54;25.50;98.10
7290;DHT22;63176;52.678;13.250;2023-07-20T13:04:20;25.40;82.50
7290;DHT22;63176;52.678;13.250;2023-07-20T13:06:45;25.50;83.80
7290;DHT22;63176;52.678;13.250;2023-07-20T13:09:11;25.80;86.00
7290;DHT22;63176;52.678;13.250;2023-07-20T13:11:37;25.80;84.60
7290;DHT22;63176;52.678;13.250;2023-07-20T13:14:02;25.60;80.70
7290;DHT22;63176;52.678;13.250;2023-07-20T13:16:28;25.80;83.30
7290;DHT22;63176;52.678;13.250;2023-07-20T13:18:54;26.10;85.20
7290;DHT22;63176;52.678;13.250;2023-07-20T13:21:19;26.30;87.00
7290;DHT22;63176;52.678;13.250;2023-07-20T13:23:48;26.70;87.50
7290;DHT22;63176;52.678;13.250;2023-07-20T13:26:14;27.00;86.20
7290;DHT22;63176;52.678;13.250;2023-07-20T13:28:41;26.90;86.00
7290;DHT22;63176;52.678;13.250;2023-07-20T13:31:06;26.50;81.20
7290;DHT22;63176;52.678;13.250;2023-07-20T13:33:34;26.10;78.00
7290;DHT22;63176;52.678;13.250;2023-07-20T13:36:00;25.70;75.50
7290;DHT22;63176;52.678;13.250;2023-07-20T13:38:26;25.30;74.40
7290;DHT22;63176;52.678;13.250;2023-07-20T13:40:52;25.00;73.00
7290;DHT22;63176;52.678;13.250;2023-07-20T13:43:17;24.80;71.60
7290;DHT22;63176;52.678;13.250;2023-07-20T13:45:43;24.70;70.50
7290;DHT22;63176;52.678;13.250;2023-07-20T13:48:09;24.80;68.70
7290;DHT22;63176;52.678;13.250;2023-07-20T13:50:34;24.90;69.10
7290;DHT22;63176;52.678;13.250;2023-07-20T13:53:00;25.20;71.20
7290;DHT22;63176;52.678;13.250;2023-07-20T13:55:28;25.50;72.40
7290;DHT22;63176;52.678;13.250;2023-07-20T13:57:53;25.50;69.60
7290;DHT22;63176;52.678;13.250;2023-07-20T14:00:19;25.30;66.90
7290;DHT22;63176;52.678;13.250;2023-07-20T14:02:45;25.00;65.30
7290;DHT22;63176;52.678;13.250;2023-07-20T14:05:10;25.70;71.30
7290;DHT22;63176;52.678;13.250;2023-07-20T14:07:36;26.70;77.10
7290;DHT22;63176;52.678;13.250;2023-07-20T14:10:02;27.90;83.40
7290;DHT22;63176;52.678;13.250;2023-07-20T14:12:28;28.80;87.00
7290;DHT22;63176;52.678;13.250;2023-07-20T14:14:54;29.90;91.50
7290;DHT22;63176;52.678;13.250;2023-07-20T14:17:21;30.90;93.70
7290;DHT22;63176;52.678;13.250;2023-07-20T14:19:47;31.10;93.70
7290;DHT22;63176;52.678;13.250;2023-07-20T14:22:12;30.80;93.60
7290;DHT22;63176;52.678;13.250;2023-07-20T14:24:38;31.30;95.10
7290;DHT22;63176;52.678;13.250;2023-07-20T14:27:04;31.70;94.80
7290;DHT22;63176;52.678;13.250;2023-07-20T14:29:29;32.40;96.70
7290;DHT22;63176;52.678;13.250;2023-07-20T14:31:57;32.80;98.20
7290;DHT22;63176;52.678;13.250;2023-07-20T14:34:22;33.20;98.70
7290;DHT22;63176;52.678;13.250;2023-07-20T14:36:48;33.30;98.70
7290;DHT22;63176;52.678;13.250;2023-07-20T14:39:15;33.30;98.30
7290;DHT22;63176;52.678;13.250;2023-07-20T14:41:40;33.10;97.60
7290;DHT22;63176;52.678;13.250;2023-07-20T14:44:06;32.80;95.40
7290;DHT22;63176;52.678;13.250;2023-07-20T14:46:32;32.40;99.90
7290;DHT22;63176;52.678;13.250;2023-07-20T14:48:57;31.90;94.60
7290;DHT22;63176;52.678;13.250;2023-07-20T14:51:24;31.60;90.70
7290;DHT22;63176;52.678;13.250;2023-07-20T14:53:49;31.20;87.00
7290;DHT22;63176;52.678;13.250;2023-07-20T14:56:15;30.80;84.30
7290;DHT22;63176;52.678;13.250;2023-07-20T14:58:41;30.20;77.30
7290;DHT22;63176;52.678;13.250;2023-07-20T15:01:06;29.40;73.50
7290;DHT22;63176;52.678;13.250;2023-07-20T15:03:32;28.60;67.60
7290;DHT22;63176;52.678;13.250;2023-07-20T15:05:57;27.80;63.40
7290;DHT22;63176;52.678;13.250;2023-07-20T15:08:23;27.20;58.70
7290;DHT22;63176;52.678;13.250;2023-07-20T15:10:49;26.70;75.70
7290;DHT22;63176;52.678;13.250;2023-07-20T15:13:15;26.30;73.40
7290;DHT22;63176;52.678;13.250;2023-07-20T15:15:40;26.10;52.80
7290;DHT22;63176;52.678;13.250;2023-07-20T15:18:07;26.00;52.50
7290;DHT22;63176;52.678;13.250;2023-07-20T15:20:32;25.70;53.10
7290;DHT22;63176;52.678;13.250;2023-07-20T15:22:58;25.70;51.60
7290;DHT22;63176;52.678;13.250;2023-07-20T15:25:24;25.70;52.70
7290;DHT22;63176;52.678;13.250;2023-07-20T15:27:50;25.70;52.90
7290;DHT22;63176;52.678;13.250;2023-07-20T15:30:16;25.60;71.50
7290;DHT22;63176;52.678;13.250;2023-07-20T15:32:42;25.60;53.00
7290;DHT22;63176;52.678;13.250;2023-07-20T15:35:09;25.60;52.30
7290;DHT22;63176;52.678;13.250;2023-07-20T15:37:35;25.60;52.90
7290;DHT22;63176;52.678;13.250;2023-07-20T15:40:02;25.50;51.00
7290;DHT22;63176;52.678;13.250;2023-07-20T15:42:30;25.30;51.10
7290;DHT22;63176;52.678;13.250;2023-07-20T15:44:56;25.20;48.50
7290;DHT22;63176;52.678;13.250;2023-07-20T15:47:22;25.00;49.00